Etusivu
METAR-TAF:

METAR-TAF

Lentoasemat :

Berlin, New Hampshire, Yhdysvallat

Leveyspiiri: 44-34-34N, Pituuspiiri: 071-10-43W, korkeus merenpinnasta: 353 m

Tämänhetkinen sää

Tämä raportti tehtiin 38 minuuttia sitten, kello 11.52 UTC
Tuuli 10 kn lännestä puuskistuen 19 kn:hen
Lämpötila 8°C
Kosteus 71%
Ilmanpaine 1006 hPa
Näkyvyys: 16.1 km
Muutamia pilviä 2200 ft:n korkeudessa
Hajonneita pilviä 3000 ft:n korkeudessa
Pilvistä 3700 ft:n korkeudessa
heikkoa sadetta

METAR: KBML 211152Z AUTO 28010G19KT 10SM -RA FEW022 BKN030 OVC037 08/03 A2972 RMK AO2 SLP066 P0001 60002 70005 T00830028 10139 20078 51017

Aika: 08:30 (12:30 UTC)


TAF: puuttuu

Säähavainnot ja -ennusteet yli 4000 lentoasemalta (METAR- ja TAF-raportit).

Käytössä olevat sääasemat on merkitty karttaan keltaisilla ja punaisilla pisteillä.

Aseta hiiri pisteen päälle nähdäksesi sääaseman nimen.

Klikkaa sitten nähdäksesi säähavainnot ja -ennusteet.

Kartan vaihtaminen: klikkaa mustalla rastilla varustettuja vihreitä pisteitä, niin voit zoomata sisään; viivalla varustettua vihreää pistettä, niin voit zoomata ulos tai vihreitä nuolia, niin pääset viereisille kartoille.


METAR-TAF: